createdAt,value
2019-05-20T00:02:24.649Z,96020.45
2019-05-20T00:04:48.370Z,96012.08
2019-05-20T00:07:15.173Z,96009.98
2019-05-20T00:09:42.011Z,96019.15
2019-05-20T00:12:08.795Z,96013.39
2019-05-20T00:14:35.639Z,96015.22
2019-05-20T00:17:02.487Z,96020.45
2019-05-20T00:19:29.369Z,96017.06
2019-05-20T00:21:56.190Z,96019.93
2019-05-20T00:24:23.011Z,96018.09
2019-05-20T00:26:49.801Z,96014.70
2019-05-20T00:29:16.612Z,96027.00
2019-05-20T00:31:43.702Z,96018.62
2019-05-20T00:34:10.511Z,96025.17
2019-05-20T00:36:37.338Z,96015.22
2019-05-20T00:39:14.863Z,96010.77
2019-05-20T00:41:41.753Z,96010.77
2019-05-20T00:44:08.668Z,96004.75
2019-05-20T00:46:35.525Z,95999.77
2019-05-20T00:49:02.360Z,95999.77
2019-05-20T00:51:29.215Z,95986.42
2019-05-20T00:53:56.005Z,95985.38
2019-05-20T00:56:22.825Z,95984.06
2019-05-20T00:58:49.700Z,95979.10
2019-05-20T01:01:16.550Z,95976.21
2019-05-20T01:03:43.430Z,95978.58
2019-05-20T01:06:10.226Z,95975.95
2019-05-20T01:08:37.057Z,95974.13
2019-05-20T01:11:03.922Z,95975.69
2019-05-20T01:13:30.759Z,95961.81
2019-05-20T01:15:57.640Z,95962.34
2019-05-20T01:18:24.484Z,95959.20
2019-05-20T01:20:51.307Z,95956.05
2019-05-20T01:23:18.165Z,95953.71
2019-05-20T01:25:45.029Z,95954.49
2019-05-20T01:28:11.939Z,95953.97
2019-05-20T01:30:38.771Z,95948.47
2019-05-20T01:33:13.782Z,95949.51
2019-05-20T01:35:34.052Z,95949.51
2019-05-20T01:38:00.844Z,95952.13
2019-05-20T01:40:27.733Z,95958.14
2019-05-20T01:42:54.595Z,95953.44
2019-05-20T01:45:21.475Z,95964.16
2019-05-20T01:47:48.301Z,95952.91
2019-05-20T01:50:15.139Z,95952.91
2019-05-20T01:52:42.012Z,95952.66
2019-05-20T01:55:08.806Z,95950.81
2019-05-20T01:57:35.642Z,95943.75
2019-05-20T02:00:02.458Z,95952.13
2019-05-20T02:02:29.346Z,95952.91
2019-05-20T02:04:56.152Z,95956.31
2019-05-20T02:07:23.044Z,95966.78
2019-05-20T02:09:49.887Z,95959.98
2019-05-20T02:12:16.702Z,95964.69
2019-05-20T02:14:51.074Z,95966.52
2019-05-20T02:17:17.923Z,95973.06
2019-05-20T02:19:44.732Z,95970.45
2019-05-20T02:22:11.547Z,95965.47
2019-05-20T02:24:38.410Z,95961.29
2019-05-20T02:27:05.233Z,95960.51
2019-05-20T02:29:32.035Z,95947.67
2019-05-20T02:31:58.850Z,95956.05
2019-05-20T02:34:25.670Z,95950.04
2019-05-20T02:36:52.546Z,95955.00
2019-05-20T02:39:19.419Z,95954.74
2019-05-20T02:41:46.267Z,95959.45
2019-05-20T02:44:13.131Z,95959.45
2019-05-20T02:46:40.217Z,95951.59
2019-05-20T02:49:07.045Z,95951.07
2019-05-20T02:51:33.858Z,95950.81
2019-05-20T02:54:00.730Z,95952.38
2019-05-20T02:56:27.541Z,95958.39
2019-05-20T02:58:54.323Z,95952.13
2019-05-20T03:01:22.125Z,95946.36
2019-05-20T03:03:49.140Z,95944.27
2019-05-20T03:06:16.077Z,95957.62
2019-05-20T03:08:42.884Z,95951.07
2019-05-20T03:11:09.812Z,95944.53
2019-05-20T03:13:36.677Z,95947.14
2019-05-20T03:16:03.683Z,95950.55
2019-05-20T03:18:30.503Z,95949.77
2019-05-20T03:20:57.417Z,95955.78
2019-05-20T03:23:24.281Z,95947.14
2019-05-20T03:25:51.261Z,95937.98
2019-05-20T03:28:18.134Z,95941.91
2019-05-20T03:30:45.211Z,95941.13
2019-05-20T03:33:12.764Z,95946.09
2019-05-20T03:35:39.744Z,95948.45
2019-05-20T03:38:06.689Z,95955.78
2019-05-20T03:40:33.547Z,95955.78
2019-05-20T03:43:00.490Z,95955.00
2019-05-20T03:45:27.407Z,95956.31
2019-05-20T03:47:54.287Z,95958.39
2019-05-20T03:50:21.370Z,95957.34
2019-05-20T03:52:48.261Z,95965.72
2019-05-20T03:55:15.259Z,95959.70
2019-05-20T03:57:42.099Z,95957.09
2019-05-20T04:00:08.958Z,95958.92
2019-05-20T04:02:35.789Z,95955.00
2019-05-20T04:05:03.331Z,95956.56
2019-05-20T04:07:30.578Z,95957.88
2019-05-20T04:09:57.476Z,95955.00
2019-05-20T04:12:24.325Z,95954.47
2019-05-20T04:14:51.270Z,95947.92
2019-05-20T04:17:18.168Z,95953.95
2019-05-20T04:19:45.190Z,95950.02
2019-05-20T04:22:12.096Z,95942.69
2019-05-20T04:24:38.926Z,95938.23
2019-05-20T04:27:05.796Z,95940.59
2019-05-20T04:29:32.620Z,95939.80
2019-05-20T04:31:59.510Z,95940.86
2019-05-20T04:34:26.406Z,95929.08
2019-05-20T04:36:53.236Z,95931.70
2019-05-20T04:39:20.153Z,95928.30
2019-05-20T04:41:47.019Z,95925.14
2019-05-20T04:44:13.968Z,95922.53
2019-05-20T04:46:40.997Z,95924.63
2019-05-20T04:49:08.037Z,95921.22
2019-05-20T04:51:34.899Z,95914.15
2019-05-20T04:54:01.861Z,95917.83
2019-05-20T04:56:29.480Z,95921.22
2019-05-20T04:58:56.638Z,95920.70
2019-05-20T05:01:23.584Z,95916.77
2019-05-20T05:03:50.563Z,95921.47
2019-05-20T05:06:17.504Z,95922.00
2019-05-20T05:08:44.454Z,95917.55
2019-05-20T05:11:11.382Z,95913.63
2019-05-20T05:13:38.204Z,95913.63
2019-05-20T05:16:05.084Z,95924.09
2019-05-20T05:18:32.008Z,95924.09
2019-05-20T05:20:58.835Z,95926.98
2019-05-20T05:23:25.643Z,95927.23
2019-05-20T05:25:52.547Z,95933.25
2019-05-20T05:28:19.568Z,95929.33
2019-05-20T05:30:46.566Z,95930.11
2019-05-20T05:33:13.469Z,95928.02
2019-05-20T05:35:52.319Z,95934.56
2019-05-20T05:38:09.016Z,95925.41
2019-05-20T05:40:35.884Z,95937.18
2019-05-20T05:43:02.775Z,95938.49
2019-05-20T05:45:29.759Z,95934.31
2019-05-20T05:47:56.731Z,95938.49
2019-05-20T05:50:23.674Z,95937.96
2019-05-20T05:52:50.679Z,95934.56
2019-05-20T05:55:17.575Z,95943.20
2019-05-20T05:57:44.435Z,95934.56
2019-05-20T06:00:11.471Z,95934.56
2019-05-20T06:02:38.424Z,95938.49
2019-05-20T06:05:05.380Z,95936.66
2019-05-20T06:07:32.297Z,95934.56
2019-05-20T06:09:59.176Z,95930.92
2019-05-20T06:12:26.063Z,95935.09
2019-05-20T06:14:52.965Z,95937.18
2019-05-20T06:17:19.856Z,95935.34
2019-05-20T06:19:46.661Z,95941.39
2019-05-20T06:22:14.570Z,95941.11
2019-05-20T06:24:41.595Z,95935.88
2019-05-20T06:27:08.525Z,95946.63
2019-05-20T06:29:35.354Z,95941.89
2019-05-20T06:32:02.248Z,95939.55
2019-05-20T06:34:29.120Z,95946.09
2019-05-20T06:36:57.621Z,95938.77
2019-05-20T06:39:24.456Z,95934.84
2019-05-20T06:41:51.315Z,95925.94
2019-05-20T06:44:18.137Z,95934.84
2019-05-20T06:46:44.975Z,95927.77
2019-05-20T06:49:11.804Z,95927.49
2019-05-20T06:51:38.599Z,95923.06
2019-05-20T06:54:05.526Z,95923.32
2019-05-20T06:56:32.451Z,95926.47
2019-05-20T06:58:59.520Z,95931.17
2019-05-20T07:01:26.575Z,95927.77
2019-05-20T07:03:53.552Z,95929.61
2019-05-20T07:06:20.530Z,95935.88
2019-05-20T07:08:47.380Z,95935.88
2019-05-20T07:11:14.224Z,95940.33
2019-05-20T07:13:41.134Z,95941.12
2019-05-20T07:16:08.004Z,95947.66
2019-05-20T07:18:34.818Z,95956.83
2019-05-20T07:21:01.636Z,95951.59
2019-05-20T07:23:28.592Z,95950.81
2019-05-20T07:25:55.547Z,95948.44
2019-05-20T07:28:22.509Z,95952.37
2019-05-20T07:30:49.553Z,95945.83
2019-05-20T07:33:16.558Z,95945.83
2019-05-20T07:35:44.055Z,95949.75
2019-05-20T07:38:11.218Z,95949.75
2019-05-20T07:40:38.259Z,95949.48
2019-05-20T07:43:05.432Z,95954.19
2019-05-20T07:45:32.666Z,95950.78
2019-05-20T07:47:59.672Z,95767.28
2019-05-20T07:50:26.520Z,95963.34
2019-05-20T07:52:53.305Z,95956.80
2019-05-20T07:55:20.102Z,95958.36
2019-05-20T07:57:46.953Z,95956.57
2019-05-20T08:00:13.766Z,95951.86
2019-05-20T08:02:40.556Z,95952.37
2019-05-20T08:05:07.440Z,95952.36
2019-05-20T08:07:50.326Z,95955.27
2019-05-20T08:10:02.801Z,95955.55
2019-05-20T08:12:29.587Z,95956.86
2019-05-20T08:14:56.357Z,95951.38
2019-05-20T08:17:23.130Z,95953.52
2019-05-20T08:19:49.950Z,95951.98
2019-05-20T08:22:16.710Z,95959.84
2019-05-20T08:24:43.491Z,95961.16
2019-05-20T08:27:10.259Z,95965.62
2019-05-20T08:29:37.045Z,95965.89
2019-05-20T08:32:03.845Z,95967.72
2019-05-20T08:34:30.955Z,95969.03
2019-05-20T08:36:57.916Z,95968.51
2019-05-20T08:39:24.677Z,95965.88
2019-05-20T08:41:51.462Z,95965.34
2019-05-20T08:44:18.278Z,95965.09
2019-05-20T08:46:45.091Z,95969.27
2019-05-20T08:49:12.010Z,95970.58
2019-05-20T08:51:39.031Z,95971.05
2019-05-20T08:54:05.885Z,95969.25
2019-05-20T08:56:32.688Z,95965.86
2019-05-20T08:58:59.449Z,95967.39
2019-05-20T09:01:26.250Z,95967.34
2019-05-20T09:03:53.030Z,95976.00
2019-05-20T09:06:20.962Z,95957.66
2019-05-20T09:08:47.883Z,95967.58
2019-05-20T09:11:14.694Z,95963.91
2019-05-20T09:13:41.502Z,95965.47
2019-05-20T09:16:08.321Z,95963.63
2019-05-20T09:18:35.178Z,95954.46
2019-05-20T09:21:02.061Z,95959.16
2019-05-20T09:23:29.085Z,95952.89
2019-05-20T09:25:55.875Z,95956.27
2019-05-20T09:28:22.698Z,95954.44
2019-05-20T09:30:49.523Z,95955.75
2019-05-20T09:33:16.328Z,95956.27
2019-05-20T09:35:43.453Z,95952.63
2019-05-20T09:38:20.444Z,95953.68
2019-05-20T09:40:38.959Z,95941.12
2019-05-20T09:43:05.986Z,95951.59
2019-05-20T09:45:32.753Z,95947.66
2019-05-20T09:47:59.544Z,95951.84
2019-05-20T09:50:26.330Z,95948.44
2019-05-20T09:52:53.397Z,95862.94
2019-05-20T09:55:20.296Z,95952.89
2019-05-20T09:57:47.063Z,95947.13
2019-05-20T10:00:13.841Z,95947.91
2019-05-20T10:02:40.616Z,95943.20
2019-05-20T10:05:07.421Z,95948.19
2019-05-20T10:07:34.177Z,95945.83
2019-05-20T10:10:00.968Z,95946.86
2019-05-20T10:12:44.623Z,95944.77
2019-05-20T10:14:56.258Z,95943.71
2019-05-20T10:17:23.034Z,95939.78
2019-05-20T10:19:49.810Z,95939.78
2019-05-20T10:22:16.594Z,95942.66
2019-05-20T10:24:43.381Z,95938.73
2019-05-20T10:27:10.150Z,95941.88
2019-05-20T10:29:36.920Z,95937.95
2019-05-20T10:32:03.700Z,95951.04
2019-05-20T10:34:30.474Z,95940.30
2019-05-20T10:36:57.247Z,95938.98
2019-05-20T10:39:24.042Z,95930.34
2019-05-20T10:41:50.822Z,95932.19
2019-05-20T10:44:17.623Z,95936.11
2019-05-20T10:46:44.413Z,95934.80
2019-05-20T10:49:11.198Z,95934.27
2019-05-20T10:51:37.974Z,95931.66
2019-05-20T10:54:04.784Z,95932.44
2019-05-20T10:56:31.540Z,95931.91
2019-05-20T10:58:58.308Z,95928.52
2019-05-20T11:01:25.087Z,95938.45
2019-05-20T11:03:51.908Z,95933.75
2019-05-20T11:06:18.705Z,95939.77
2019-05-20T11:08:45.470Z,95940.55
2019-05-20T11:11:14.325Z,95947.09
2019-05-20T11:13:40.759Z,95949.45
2019-05-20T11:16:07.544Z,95954.95
2019-05-20T11:18:34.341Z,95943.16
2019-05-20T11:21:01.212Z,95944.75
2019-05-20T11:23:27.986Z,95942.91
2019-05-20T11:25:54.767Z,95944.75
2019-05-20T11:28:21.536Z,95944.75
2019-05-20T11:30:48.322Z,95943.44
2019-05-20T11:33:15.137Z,95947.89
2019-05-20T11:35:41.975Z,95947.89
2019-05-20T11:38:08.763Z,95946.05
2019-05-20T11:40:35.549Z,95946.58
2019-05-20T11:43:02.342Z,95951.30
2019-05-20T11:45:29.132Z,95950.77
2019-05-20T11:47:55.946Z,95959.92
2019-05-20T11:50:22.722Z,95963.07
2019-05-20T11:52:49.776Z,95957.31
2019-05-20T11:55:16.704Z,95970.92
2019-05-20T11:57:43.473Z,95976.14
2019-05-20T12:00:10.271Z,95981.63
2019-05-20T12:02:37.048Z,95987.06
2019-05-20T12:05:03.831Z,95988.08
2019-05-20T12:07:30.623Z,96001.17
2019-05-20T12:09:57.395Z,96002.76
2019-05-20T12:12:24.222Z,95999.63
2019-05-20T12:14:51.093Z,96007.23
2019-05-20T12:17:17.996Z,96005.92
2019-05-20T12:19:44.802Z,96024.26
2019-05-20T12:22:11.603Z,96014.31
2019-05-20T12:24:38.463Z,96006.98
2019-05-20T12:27:05.334Z,96010.91
2019-05-20T12:29:32.189Z,96008.29
2019-05-20T12:32:03.207Z,96002.27
2019-05-20T12:34:27.608Z,96010.13
2019-05-20T12:36:54.461Z,96008.29
2019-05-20T12:39:21.336Z,95996.25
2019-05-20T12:41:48.158Z,95997.31
2019-05-20T12:44:14.965Z,95993.89
2019-05-20T12:46:41.800Z,96002.27
2019-05-20T12:49:08.688Z,96008.29
2019-05-20T12:51:35.557Z,96000.71
2019-05-20T12:54:02.346Z,96009.34
2019-05-20T12:56:29.118Z,96009.88
2019-05-20T12:58:55.915Z,96011.72
2019-05-20T13:01:22.686Z,96011.72
2019-05-20T13:03:49.464Z,96010.41
2019-05-20T13:06:16.585Z,96010.15
2019-05-20T13:08:43.423Z,95998.36
2019-05-20T13:11:10.600Z,96001.77
2019-05-20T13:13:37.449Z,96001.77
2019-05-20T13:16:04.291Z,96003.60
2019-05-20T13:18:31.170Z,96006.75
2019-05-20T13:20:57.928Z,96011.98
2019-05-20T13:23:24.712Z,96009.37
2019-05-20T13:25:51.851Z,96016.44
2019-05-20T13:28:18.616Z,96013.30
2019-05-20T13:30:45.400Z,96008.59
2019-05-20T13:33:12.168Z,96012.52
2019-05-20T13:35:38.978Z,96008.06
2019-05-20T13:38:05.804Z,96008.06
2019-05-20T13:40:45.730Z,96005.44
2019-05-20T13:43:01.169Z,96010.15
2019-05-20T13:45:27.928Z,96011.98
2019-05-20T13:47:54.708Z,96004.66
2019-05-20T13:50:21.502Z,96014.61
2019-05-20T13:52:48.271Z,96016.44
2019-05-20T13:55:15.222Z,96010.95
2019-05-20T13:57:42.547Z,96013.82
2019-05-20T14:00:09.614Z,96018.80
2019-05-20T14:02:36.452Z,96010.95
2019-05-20T14:05:03.246Z,96012.52
2019-05-20T14:07:30.032Z,96014.35
2019-05-20T14:09:56.882Z,96008.59
2019-05-20T14:12:23.650Z,95971.81
2019-05-20T14:14:50.426Z,96004.41
2019-05-20T14:17:17.202Z,96007.55
2019-05-20T14:19:44.001Z,96004.41
2019-05-20T14:22:10.772Z,96009.89
2019-05-20T14:24:37.541Z,96003.09
2019-05-20T14:27:04.438Z,96003.62
2019-05-20T14:29:31.293Z,96004.41
2019-05-20T14:31:58.077Z,96003.09
2019-05-20T14:34:24.864Z,96001.00
2019-05-20T14:36:53.003Z,95998.88
2019-05-20T14:39:20.048Z,95994.45
2019-05-20T14:41:46.841Z,95994.95
2019-05-20T14:44:13.606Z,95997.58
2019-05-20T14:46:40.407Z,95994.45
2019-05-20T14:49:07.474Z,96004.12
2019-05-20T14:51:34.255Z,96001.50
2019-05-20T14:54:01.082Z,95995.48
2019-05-20T14:56:27.871Z,95997.08
2019-05-20T14:58:55.817Z,95998.10
2019-05-20T15:01:22.726Z,95998.10
2019-05-20T15:03:49.497Z,95998.88
2019-05-20T15:06:16.268Z,95995.48
2019-05-20T15:08:43.028Z,95993.65
2019-05-20T15:11:09.820Z,95992.08
2019-05-20T15:13:36.598Z,95990.78
2019-05-20T15:16:03.409Z,95989.47
2019-05-20T15:18:30.176Z,95992.61
2019-05-20T15:20:56.983Z,95988.16
2019-05-20T15:23:23.798Z,95986.06
2019-05-20T15:25:50.679Z,95993.39
2019-05-20T15:28:17.460Z,95993.65
2019-05-20T15:30:44.254Z,95992.87
2019-05-20T15:33:11.035Z,95986.84
2019-05-20T15:35:37.814Z,95987.38
2019-05-20T15:38:04.597Z,95999.94
2019-05-20T15:40:31.390Z,95986.32
2019-05-20T15:42:58.175Z,95983.70
2019-05-20T15:45:24.947Z,95984.23
2019-05-20T15:47:51.740Z,95987.13
2019-05-20T15:50:18.505Z,95983.45
2019-05-20T15:52:45.303Z,95989.21
2019-05-20T15:55:12.075Z,95991.30
2019-05-20T15:57:38.863Z,95998.38
2019-05-20T16:00:05.629Z,95988.69
2019-05-20T16:02:32.450Z,95999.42
2019-05-20T16:04:59.304Z,95994.92
2019-05-20T16:07:26.194Z,95992.58
2019-05-20T16:09:52.983Z,95989.45
2019-05-20T16:12:19.764Z,95989.20
2019-05-20T16:14:46.637Z,95993.66
2019-05-20T16:17:13.739Z,95988.42
2019-05-20T16:19:40.604Z,95994.97
2019-05-20T16:22:07.388Z,95988.42
2019-05-20T16:24:34.170Z,95992.34
2019-05-20T16:27:01.031Z,95987.11
2019-05-20T16:29:27.807Z,95989.73
2019-05-20T16:31:54.573Z,95988.95
2019-05-20T16:34:21.361Z,95991.04
2019-05-20T16:36:48.140Z,95983.18
2019-05-20T16:39:14.925Z,95984.49
2019-05-20T16:41:41.706Z,95977.17
2019-05-20T16:44:08.481Z,95977.17
2019-05-20T16:46:35.272Z,95979.53
2019-05-20T16:49:02.048Z,95996.80
2019-05-20T16:51:28.860Z,96022.98
2019-05-20T16:53:55.777Z,96040.79
2019-05-20T16:56:22.561Z,96026.39
2019-05-20T16:58:49.370Z,96015.66
2019-05-20T17:01:16.172Z,96009.88
2019-05-20T17:03:42.950Z,96009.60
2019-05-20T17:06:09.722Z,96016.93
2019-05-20T17:08:36.513Z,96018.52
2019-05-20T17:11:03.289Z,96018.26
2019-05-20T17:13:30.138Z,96011.45
2019-05-20T17:15:56.939Z,96020.63
2019-05-20T17:18:23.986Z,96029.78
2019-05-20T17:20:50.772Z,96031.09
2019-05-20T17:23:17.621Z,96021.94
2019-05-20T17:25:44.458Z,96020.37
2019-05-20T17:28:11.241Z,96020.11
2019-05-20T17:30:45.598Z,96016.44
2019-05-20T17:33:06.542Z,96009.11
2019-05-20T17:35:33.306Z,96017.22
2019-05-20T17:38:00.177Z,96012.27
2019-05-20T17:40:27.040Z,96010.17
2019-05-20T17:42:53.852Z,96010.42
2019-05-20T17:45:20.635Z,96013.04
2019-05-20T17:47:47.448Z,96016.97
2019-05-20T17:50:14.218Z,96015.41
2019-05-20T17:52:41.019Z,96014.09
2019-05-20T17:55:07.822Z,96025.88
2019-05-20T17:57:34.601Z,96008.58
2019-05-20T18:00:01.528Z,96013.81
2019-05-20T18:02:28.308Z,96010.66
2019-05-20T18:04:55.114Z,96016.72
2019-05-20T18:07:21.886Z,96014.87
2019-05-20T18:09:50.315Z,96016.72
2019-05-20T18:12:17.101Z,96014.09
2019-05-20T18:14:45.543Z,96010.17
2019-05-20T18:17:13.120Z,96014.09
2019-05-20T18:19:40.010Z,96022.73
2019-05-20T18:22:06.797Z,96021.42
2019-05-20T18:24:33.585Z,96017.21
2019-05-20T18:27:00.345Z,96014.09
2019-05-20T18:29:27.123Z,96018.52
2019-05-20T18:31:53.918Z,96022.98
2019-05-20T18:34:20.699Z,96023.76
2019-05-20T18:36:47.467Z,96030.30
2019-05-20T18:39:14.247Z,96033.98
2019-05-20T18:41:41.025Z,96033.45
2019-05-20T18:44:07.797Z,96035.28
2019-05-20T18:46:34.579Z,96029.27
2019-05-20T18:49:01.364Z,96032.67
2019-05-20T18:51:28.158Z,96037.13
2019-05-20T18:53:54.961Z,96032.41
2019-05-20T18:56:21.734Z,96037.65
2019-05-20T18:58:48.500Z,96034.50
2019-05-20T19:01:15.356Z,96030.58
2019-05-20T19:03:42.302Z,96034.25
2019-05-20T19:06:09.188Z,96035.56
2019-05-20T19:08:36.037Z,96037.92
2019-05-20T19:11:02.827Z,96045.25
2019-05-20T19:13:29.603Z,96049.70
2019-05-20T19:15:56.388Z,96051.02
2019-05-20T19:18:23.168Z,96053.11
2019-05-20T19:20:49.937Z,96055.72
2019-05-20T19:23:16.726Z,96058.34
2019-05-20T19:25:44.059Z,96061.74
2019-05-20T19:28:10.984Z,96064.89
2019-05-20T19:30:37.754Z,96062.80
2019-05-20T19:33:05.511Z,96070.66
2019-05-20T19:35:32.322Z,96074.58
2019-05-20T19:37:59.114Z,96070.13
2019-05-20T19:40:25.921Z,96074.58
2019-05-20T19:42:52.694Z,96071.96
2019-05-20T19:45:19.496Z,96075.11
2019-05-20T19:47:46.264Z,96080.34
2019-05-20T19:50:13.093Z,96080.59
2019-05-20T19:52:39.914Z,96085.83
2019-05-20T19:55:06.692Z,96083.74
2019-05-20T19:57:33.460Z,96084.00
2019-05-20T20:00:00.252Z,96082.43
2019-05-20T20:02:27.030Z,96085.30
2019-05-20T20:04:53.876Z,96081.13
2019-05-20T20:07:20.682Z,96086.36
2019-05-20T20:09:47.530Z,96088.20
2019-05-20T20:12:14.407Z,96087.41
2019-05-20T20:14:41.172Z,96085.05
2019-05-20T20:17:07.959Z,96090.81
2019-05-20T20:19:34.824Z,96087.94
2019-05-20T20:22:01.754Z,96092.13
2019-05-20T20:24:28.520Z,96094.99
2019-05-20T20:26:55.298Z,96094.47
2019-05-20T20:29:22.095Z,96098.14
2019-05-20T20:31:48.860Z,96099.70
2019-05-20T20:34:15.648Z,96103.88
2019-05-20T20:36:42.433Z,96101.51
2019-05-20T20:39:09.267Z,96106.73
2019-05-20T20:41:36.156Z,96103.33
2019-05-20T20:44:03.004Z,96102.29
2019-05-20T20:46:29.827Z,96109.11
2019-05-20T20:48:56.706Z,96104.92
2019-05-20T20:51:23.503Z,96103.36
2019-05-20T20:53:50.332Z,96105.20
2019-05-20T20:56:25.155Z,96107.81
2019-05-20T20:58:45.670Z,96108.07
2019-05-20T21:01:12.606Z,96103.11
2019-05-20T21:03:39.583Z,96103.36
2019-05-20T21:06:06.768Z,96103.36
2019-05-20T21:08:36.210Z,96104.41
2019-05-20T21:11:03.020Z,96101.27
2019-05-20T21:13:29.819Z,96102.58
2019-05-20T21:15:58.592Z,96102.58
2019-05-20T21:18:25.555Z,96108.59
2019-05-20T21:20:52.693Z,96104.67
2019-05-20T21:23:19.674Z,96106.51
2019-05-20T21:25:46.578Z,96104.67
2019-05-20T21:28:13.481Z,96099.96
2019-05-20T21:30:40.274Z,96102.05
2019-05-20T21:33:09.642Z,96103.36
2019-05-20T21:35:35.868Z,96103.89
2019-05-20T21:38:02.819Z,96102.05
2019-05-20T21:40:30.373Z,96106.23
2019-05-20T21:42:57.209Z,96101.27
2019-05-20T21:45:24.073Z,96104.40
2019-05-20T21:47:51.013Z,96098.37
2019-05-20T21:50:17.975Z,96098.91
2019-05-20T21:52:44.948Z,96095.76
2019-05-20T21:55:11.856Z,96093.67
2019-05-20T21:57:38.712Z,96090.27
2019-05-20T22:00:05.526Z,96090.52
2019-05-20T22:02:32.340Z,96098.37
2019-05-20T22:04:59.161Z,96094.98
2019-05-20T22:07:25.989Z,96087.12
2019-05-20T22:09:53.048Z,96084.50
2019-05-20T22:12:19.946Z,96085.81
2019-05-20T22:14:46.749Z,96091.05
2019-05-20T22:17:13.589Z,96085.03
2019-05-20T22:19:40.595Z,96085.81
2019-05-20T22:22:09.070Z,96079.27
2019-05-20T22:24:35.886Z,96082.67
2019-05-20T22:27:02.807Z,96077.43
2019-05-20T22:29:29.618Z,96073.50
2019-05-20T22:31:56.443Z,96075.34
2019-05-20T22:34:23.244Z,96076.65
2019-05-20T22:36:50.061Z,96075.06
2019-05-20T22:39:17.090Z,96072.19
2019-05-20T22:41:43.960Z,96066.95
2019-05-20T22:44:10.845Z,96066.95
2019-05-20T22:46:37.704Z,96075.06
2019-05-20T22:49:04.567Z,96069.58
2019-05-20T22:51:31.619Z,96068.27
2019-05-20T22:53:58.583Z,96068.52
2019-05-20T22:56:25.453Z,96071.67
2019-05-20T22:58:52.289Z,96070.88
2019-05-20T23:01:19.085Z,96067.73
2019-05-20T23:03:56.147Z,96070.36
2019-05-20T23:06:14.615Z,96066.95
2019-05-20T23:08:41.671Z,96059.88
2019-05-20T23:11:08.706Z,96059.10
2019-05-20T23:13:35.533Z,96061.97
2019-05-20T23:16:02.544Z,96057.01
2019-05-20T23:18:29.441Z,96057.79
2019-05-20T23:20:56.308Z,96061.19
2019-05-20T23:23:23.452Z,96059.88
2019-05-20T23:25:52.782Z,96059.10
2019-05-20T23:28:19.088Z,96060.66
2019-05-20T23:30:45.936Z,96058.58
2019-05-20T23:33:12.831Z,96065.12
2019-05-20T23:35:39.677Z,96055.17
2019-05-20T23:38:06.563Z,96058.05
2019-05-20T23:40:33.394Z,96059.88
2019-05-20T23:43:00.208Z,96065.12
2019-05-20T23:45:27.047Z,96063.81
2019-05-20T23:47:53.861Z,96069.83
2019-05-20T23:50:20.691Z,96062.50
2019-05-20T23:52:47.493Z,96059.10
2019-05-20T23:55:14.381Z,96064.34
2019-05-20T23:57:41.185Z,96065.12
